createdAt,value
2023-04-16T00:01:44.288Z,100200.78
2023-04-16T00:04:12.506Z,100211.03
2023-04-16T00:06:40.618Z,100200.75
2023-04-16T00:09:08.651Z,100213.59
2023-04-16T00:11:38.040Z,100211.88
2023-04-16T00:14:06.099Z,100210.16
2023-04-16T00:16:34.665Z,100204.16
2023-04-16T00:19:02.494Z,100203.31
2023-04-16T00:21:31.240Z,100208.44
2023-04-16T00:23:59.118Z,100195.63
2023-04-16T00:26:26.952Z,100195.63
2023-04-16T00:28:56.127Z,100196.47
2023-04-16T00:31:29.123Z,100205.91
2023-04-16T00:33:57.145Z,100202.47
2023-04-16T00:36:25.171Z,100209.31
2023-04-16T00:38:53.165Z,100209.31
2023-04-16T00:41:21.623Z,100205.91
2023-04-16T00:43:49.632Z,100205.03
2023-04-16T00:46:21.304Z,100205.91
2023-04-16T00:48:50.110Z,100199.03
2023-04-16T00:51:21.384Z,100201.63
2023-04-16T00:53:49.546Z,100205.88
2023-04-16T00:56:17.922Z,100206.75
2023-04-16T00:58:46.018Z,100208.47
2023-04-16T01:01:14.725Z,100204.16
2023-04-16T01:03:45.822Z,100213.59
2023-04-16T01:06:14.449Z,100217.00
2023-04-16T01:08:42.254Z,100207.59
2023-04-16T01:11:12.133Z,100217.88
2023-04-16T01:13:40.049Z,100213.56
2023-04-16T01:16:08.303Z,100208.47
2023-04-16T01:18:37.221Z,100212.72
2023-04-16T01:21:07.159Z,100215.31
2023-04-16T01:23:35.363Z,100215.28
2023-04-16T01:26:03.161Z,100215.31
2023-04-16T01:28:31.023Z,100208.44
2023-04-16T01:30:58.935Z,100212.75
2023-04-16T01:33:26.813Z,100214.47
2023-04-16T01:35:54.886Z,100207.63
2023-04-16T01:38:24.140Z,100207.59
2023-04-16T01:40:51.967Z,100215.31
2023-04-16T01:43:19.814Z,100214.47
2023-04-16T01:45:47.702Z,100210.16
2023-04-16T01:48:15.517Z,100212.72
2023-04-16T01:50:43.512Z,100221.31
2023-04-16T01:53:11.460Z,100219.56
2023-04-16T01:55:40.612Z,100214.44
2023-04-16T01:58:11.072Z,100216.16
2023-04-16T02:00:39.123Z,100221.28
2023-04-16T02:03:07.054Z,100221.31
2023-04-16T02:05:34.903Z,100222.97
2023-04-16T02:08:02.749Z,100228.97
2023-04-16T02:10:30.568Z,100230.66
2023-04-16T02:12:59.754Z,100228.94
2023-04-16T02:15:27.571Z,100235.78
2023-04-16T02:17:57.118Z,100238.34
2023-04-16T02:20:25.206Z,100233.22
2023-04-16T02:22:53.230Z,100241.75
2023-04-16T02:25:21.262Z,100245.16
2023-04-16T02:27:49.073Z,100236.63
2023-04-16T02:30:18.797Z,100234.06
2023-04-16T02:32:46.786Z,100235.75
2023-04-16T02:35:14.590Z,100232.31
2023-04-16T02:37:42.345Z,100243.44
2023-04-16T02:40:11.649Z,100248.56
2023-04-16T02:42:39.472Z,100249.41
2023-04-16T02:45:08.348Z,100245.97
2023-04-16T02:47:37.853Z,100263.06
2023-04-16T02:50:07.024Z,100259.66
2023-04-16T02:52:34.953Z,100262.22
2023-04-16T02:55:03.114Z,100267.31
2023-04-16T02:57:31.190Z,100268.19
2023-04-16T02:59:59.198Z,100269.03
2023-04-16T03:02:27.417Z,100273.31
2023-04-16T03:04:56.657Z,100269.03
2023-04-16T03:07:24.765Z,100273.31
2023-04-16T03:09:52.884Z,100286.16
2023-04-16T03:12:20.864Z,100287.84
2023-04-16T03:14:48.743Z,100292.97
2023-04-16T03:17:16.771Z,100291.28
2023-04-16T03:19:44.676Z,100287.00
2023-04-16T03:22:13.916Z,100285.28
2023-04-16T03:24:41.842Z,100284.44
2023-04-16T03:27:09.759Z,100284.44
2023-04-16T03:29:38.091Z,100278.47
2023-04-16T03:32:05.992Z,100284.47
2023-04-16T03:34:33.864Z,100281.06
2023-04-16T03:37:01.819Z,100280.19
2023-04-16T03:39:31.173Z,100283.59
2023-04-16T03:41:59.209Z,100286.19
2023-04-16T03:44:27.109Z,100288.72
2023-04-16T03:46:55.223Z,100281.84
2023-04-16T03:49:23.163Z,100288.69
2023-04-16T03:51:51.271Z,100292.97
2023-04-16T03:54:21.314Z,100296.34
2023-04-16T03:56:52.237Z,100294.66
2023-04-16T03:59:20.087Z,100297.22
2023-04-16T04:01:48.080Z,100288.66
2023-04-16T04:04:16.371Z,100309.22
2023-04-16T04:06:46.182Z,100290.44
2023-04-16T04:09:14.088Z,100292.97
2023-04-16T04:11:41.929Z,100298.13
2023-04-16T04:14:11.175Z,100303.28
2023-04-16T04:16:39.112Z,100300.72
2023-04-16T04:19:07.027Z,100295.56
2023-04-16T04:21:34.999Z,100289.59
2023-04-16T04:24:02.869Z,100311.00
2023-04-16T04:26:30.859Z,100305.84
2023-04-16T04:28:58.780Z,100306.72
2023-04-16T04:31:28.022Z,100312.69
2023-04-16T04:33:56.399Z,100316.16
2023-04-16T04:36:24.265Z,100312.75
2023-04-16T04:38:52.199Z,100317.03
2023-04-16T04:41:20.145Z,100321.31
2023-04-16T04:43:48.109Z,100324.72
2023-04-16T04:46:16.019Z,100323.84
2023-04-16T04:48:45.290Z,100334.09
2023-04-16T04:51:13.131Z,100336.69
2023-04-16T04:53:41.011Z,100319.56
2023-04-16T04:56:12.720Z,100334.16
2023-04-16T04:58:41.494Z,100332.44
2023-04-16T05:01:09.394Z,100335.88
2023-04-16T05:03:37.536Z,100341.03
2023-04-16T05:06:08.325Z,100343.63
2023-04-16T05:08:36.433Z,100352.16
2023-04-16T05:11:04.355Z,100341.06
2023-04-16T05:13:32.130Z,100346.19
2023-04-16T05:16:00.110Z,100353.88
2023-04-16T05:18:27.944Z,100344.47
2023-04-16T05:20:56.024Z,100345.34
2023-04-16T05:23:25.317Z,100353.88
2023-04-16T05:25:53.179Z,100351.34
2023-04-16T05:28:21.076Z,100349.63
2023-04-16T05:30:49.018Z,100349.63
2023-04-16T05:33:17.166Z,100357.34
2023-04-16T05:35:45.075Z,100354.78
2023-04-16T05:38:12.941Z,100362.50
2023-04-16T05:40:42.153Z,100364.25
2023-04-16T05:43:10.085Z,100361.72
2023-04-16T05:45:41.278Z,100364.31
2023-04-16T05:48:10.056Z,100360.00
2023-04-16T05:50:38.662Z,100360.88
2023-04-16T05:53:08.652Z,100363.47
2023-04-16T05:55:36.935Z,100368.59
2023-04-16T05:58:06.368Z,100374.59
2023-04-16T06:00:34.771Z,100382.31
2023-04-16T06:03:03.871Z,100382.28
2023-04-16T06:05:32.253Z,100380.56
2023-04-16T06:08:00.458Z,100382.28
2023-04-16T06:10:28.495Z,100384.84
2023-04-16T06:12:56.343Z,100383.13
2023-04-16T06:15:25.681Z,100390.84
2023-04-16T06:17:53.567Z,100395.97
2023-04-16T06:20:21.592Z,100401.09
2023-04-16T06:22:49.452Z,100396.84
2023-04-16T06:25:18.293Z,100396.84
2023-04-16T06:27:46.265Z,100395.13
2023-04-16T06:30:14.961Z,100400.28
2023-04-16T06:32:46.562Z,100405.44
2023-04-16T06:35:14.763Z,100405.44
2023-04-16T06:37:42.791Z,100396.03
2023-04-16T06:40:11.522Z,100402.03
2023-04-16T06:42:39.655Z,100398.59
2023-04-16T06:45:09.234Z,100402.91
2023-04-16T06:47:37.207Z,100408.03
2023-04-16T06:50:07.573Z,100403.75
2023-04-16T06:52:35.805Z,100408.06
2023-04-16T06:55:03.993Z,100410.63
2023-04-16T06:57:32.050Z,100408.91
2023-04-16T06:59:59.894Z,100411.50
2023-04-16T07:02:28.002Z,100404.63
2023-04-16T07:04:56.044Z,100405.50
2023-04-16T07:07:25.671Z,100419.19
2023-04-16T07:09:56.554Z,100419.22
2023-04-16T07:12:24.526Z,100420.06
2023-04-16T07:14:52.431Z,100421.78
2023-04-16T07:17:20.504Z,100421.75
2023-04-16T07:19:48.421Z,100423.47
2023-04-16T07:22:16.697Z,100430.34
2023-04-16T07:24:46.064Z,100430.34
2023-04-16T07:27:13.923Z,100434.63
2023-04-16T07:29:41.992Z,100433.75
2023-04-16T07:32:10.093Z,100444.06
2023-04-16T07:34:37.993Z,100449.19
2023-04-16T07:37:05.980Z,100452.63
2023-04-16T07:39:33.869Z,100453.47
2023-04-16T07:42:03.166Z,100452.63
2023-04-16T07:44:31.225Z,100445.78
2023-04-16T07:46:59.190Z,100452.63
2023-04-16T07:49:27.191Z,100455.19
2023-04-16T07:51:54.966Z,100461.22
2023-04-16T07:54:22.765Z,100458.63
2023-04-16T07:56:50.633Z,100460.34
2023-04-16T07:59:23.561Z,100458.66
2023-04-16T08:01:54.551Z,100459.50
2023-04-16T08:04:25.415Z,100468.94
2023-04-16T08:06:54.539Z,100464.63
2023-04-16T08:09:24.608Z,100468.91
2023-04-16T08:11:52.600Z,100471.50
2023-04-16T08:14:21.969Z,100482.63
2023-04-16T08:16:49.952Z,100483.50
2023-04-16T08:19:17.858Z,100487.78
2023-04-16T08:21:45.790Z,100490.38
2023-04-16T08:24:13.756Z,100488.66
2023-04-16T08:26:41.664Z,100492.09
2023-04-16T08:29:09.665Z,100490.38
2023-04-16T08:31:40.186Z,100487.78
2023-04-16T08:34:08.029Z,100492.06
2023-04-16T08:36:35.830Z,100488.66
2023-04-16T08:39:03.762Z,100493.78
2023-04-16T08:41:33.432Z,100488.66
2023-04-16T08:44:06.066Z,100492.91
2023-04-16T08:46:37.873Z,100490.28
2023-04-16T08:49:09.320Z,100484.25
2023-04-16T08:51:37.792Z,100482.53
2023-04-16T08:54:09.934Z,100489.38
2023-04-16T08:56:38.955Z,100491.03
2023-04-16T08:59:07.882Z,100497.88
2023-04-16T09:01:36.648Z,100496.16
2023-04-16T09:04:06.335Z,100500.41
2023-04-16T09:06:37.506Z,100503.81
2023-04-16T09:09:06.256Z,100498.66
2023-04-16T09:11:34.208Z,100511.56
2023-04-16T09:14:02.733Z,100503.81
2023-04-16T09:16:34.660Z,100505.56
2023-04-16T09:19:02.588Z,100503.81
2023-04-16T09:21:31.040Z,100509.81
2023-04-16T09:24:01.168Z,100510.69
2023-04-16T09:26:29.222Z,100511.56
2023-04-16T09:28:56.992Z,100508.97
2023-04-16T09:31:24.938Z,100503.81
2023-04-16T09:34:04.214Z,100505.50
2023-04-16T09:36:33.726Z,100520.97
2023-04-16T09:39:03.911Z,100519.25
2023-04-16T09:41:35.941Z,100522.72
2023-04-16T09:44:05.605Z,100521.88
2023-04-16T09:46:36.606Z,100522.75
2023-04-16T09:49:09.965Z,100517.56
2023-04-16T09:51:38.923Z,100525.25
2023-04-16T09:54:08.708Z,100525.19
2023-04-16T09:56:41.245Z,100533.69
2023-04-16T09:59:10.103Z,100529.25
2023-04-16T10:01:38.528Z,100534.34
2023-04-16T10:04:08.108Z,100536.06
2023-04-16T10:06:36.190Z,100536.91
2023-04-16T10:09:10.921Z,100536.03
2023-04-16T10:11:39.036Z,100542.06
2023-04-16T10:14:06.885Z,100543.78
2023-04-16T10:16:35.748Z,100537.78
2023-04-16T10:19:03.774Z,100548.13
2023-04-16T10:21:34.433Z,100547.22
2023-04-16T10:24:02.752Z,100546.28
2023-04-16T10:26:32.576Z,100554.88
2023-04-16T10:29:01.194Z,100560.06
2023-04-16T10:31:30.203Z,100559.25
2023-04-16T10:33:59.547Z,100556.59
2023-04-16T10:36:27.729Z,100560.06
2023-04-16T10:39:00.770Z,100564.38
2023-04-16T10:41:28.950Z,100566.97
2023-04-16T10:44:09.527Z,100570.38
2023-04-16T10:46:39.815Z,100565.19
2023-04-16T10:49:15.534Z,100566.06
2023-04-16T10:51:43.410Z,100563.44
2023-04-16T10:54:22.903Z,100565.06
2023-04-16T10:56:51.522Z,100557.19
2023-04-16T10:59:22.469Z,100561.31
2023-04-16T11:01:52.459Z,100567.19
2023-04-16T11:04:45.152Z,100567.88
2023-04-16T11:07:33.087Z,100564.28
2023-04-16T11:10:02.491Z,100559.81
2023-04-16T11:12:35.941Z,100569.16
2023-04-16T11:15:06.749Z,100559.59
2023-04-16T11:17:38.295Z,100575.91
2023-04-16T11:20:17.389Z,100568.28
2023-04-16T11:22:49.022Z,100573.66
2023-04-16T11:25:20.942Z,100575.47
2023-04-16T11:27:48.729Z,100579.88
2023-04-16T11:30:18.818Z,100573.16
2023-04-16T11:32:47.222Z,100580.13
2023-04-16T11:35:16.313Z,100583.59
2023-04-16T11:37:44.420Z,100579.31
2023-04-16T11:40:13.328Z,100577.47
2023-04-16T11:42:42.403Z,100577.34
2023-04-16T11:45:12.493Z,100578.00
2023-04-16T11:47:51.783Z,100576.94
2023-04-16T11:50:22.159Z,100576.75
2023-04-16T11:52:51.363Z,100579.22
2023-04-16T11:55:19.743Z,100573.84
2023-04-16T11:57:48.085Z,100558.13
2023-04-16T12:00:16.745Z,100566.34
2023-04-16T12:02:46.153Z,100558.09
2023-04-16T12:05:34.037Z,100556.81
2023-04-16T12:08:03.407Z,100564.38
2023-04-16T12:10:36.070Z,100563.31
2023-04-16T12:13:14.180Z,100563.06
2023-04-16T12:15:48.991Z,100559.47
2023-04-16T12:18:17.372Z,100558.56
2023-04-16T12:20:47.536Z,100565.72
2023-04-16T12:23:24.343Z,100565.88
2023-04-16T12:25:52.270Z,100564.91
2023-04-16T12:28:29.381Z,100555.41
2023-04-16T12:30:57.632Z,100552.28
2023-04-16T12:33:25.697Z,100556.53
2023-04-16T12:35:55.015Z,100562.97
2023-04-16T12:38:24.559Z,100551.28
2023-04-16T12:40:56.572Z,100544.84
2023-04-16T12:43:24.732Z,100541.34
2023-04-16T12:45:52.599Z,100547.28
2023-04-16T12:48:20.569Z,100542.19
2023-04-16T12:50:48.416Z,100549.88
2023-04-16T12:53:17.591Z,100540.22
2023-04-16T12:55:45.906Z,100544.72
2023-04-16T12:58:13.752Z,100545.63
2023-04-16T13:00:41.570Z,100544.91
2023-04-16T13:03:09.530Z,100547.56
2023-04-16T13:05:37.420Z,100535.66
2023-04-16T13:08:05.462Z,100542.63
2023-04-16T13:10:34.928Z,100543.59
2023-04-16T13:13:02.804Z,100532.53
2023-04-16T13:15:30.748Z,100536.13
2023-04-16T13:17:58.716Z,100542.38
2023-04-16T13:20:26.748Z,100543.50
2023-04-16T13:22:55.293Z,100541.59
2023-04-16T13:25:23.120Z,100532.47
2023-04-16T13:27:52.696Z,100532.03
2023-04-16T13:30:20.680Z,100524.47
2023-04-16T13:32:48.590Z,100531.38
2023-04-16T13:35:16.423Z,100529.66
2023-04-16T13:37:44.231Z,100533.53
2023-04-16T13:40:12.067Z,100543.50
2023-04-16T13:42:39.886Z,100537.31
2023-04-16T13:45:10.218Z,100538.72
2023-04-16T13:47:39.438Z,100527.63
2023-04-16T13:50:08.076Z,100535.38
2023-04-16T13:52:36.506Z,100528.59
2023-04-16T13:55:04.623Z,100526.50
2023-04-16T13:57:32.474Z,100535.50
2023-04-16T14:00:00.364Z,100524.50
2023-04-16T14:02:29.965Z,100530.25
2023-04-16T14:04:57.810Z,100536.88
2023-04-16T14:07:27.454Z,100536.56
2023-04-16T14:09:55.503Z,100537.00
2023-04-16T14:12:23.451Z,100543.69
2023-04-16T14:14:51.444Z,100539.59
2023-04-16T14:17:19.386Z,100540.97
2023-04-16T14:19:48.672Z,100539.72
2023-04-16T14:22:17.881Z,100534.31
2023-04-16T14:24:45.838Z,100545.28
2023-04-16T14:27:13.736Z,100545.03
2023-04-16T14:29:42.118Z,100542.09
2023-04-16T14:32:10.042Z,100551.22
2023-04-16T14:34:38.017Z,100548.94
2023-04-16T14:37:07.311Z,100551.78
2023-04-16T14:39:36.449Z,100559.81
2023-04-16T14:42:04.334Z,100564.38
2023-04-16T14:44:32.219Z,100556.84
2023-04-16T14:47:00.099Z,100561.38
2023-04-16T14:49:28.127Z,100562.44
2023-04-16T14:51:56.706Z,100560.84
2023-04-16T14:54:26.571Z,100569.53
2023-04-16T14:56:54.775Z,100569.63
2023-04-16T14:59:22.814Z,100571.44
2023-04-16T15:01:51.779Z,100577.53
2023-04-16T15:04:19.964Z,100573.22
2023-04-16T15:06:48.023Z,100568.09
2023-04-16T15:09:15.939Z,100571.56
2023-04-16T15:11:45.258Z,100573.22
2023-04-16T15:14:13.492Z,100574.91
2023-04-16T15:16:41.575Z,100575.66
2023-04-16T15:19:10.070Z,100579.91
2023-04-16T15:21:38.299Z,100577.28
2023-04-16T15:24:06.618Z,100582.41
2023-04-16T15:26:34.439Z,100570.31
2023-04-16T15:29:03.645Z,100574.59
2023-04-16T15:31:31.632Z,100584.91
2023-04-16T15:34:00.797Z,100577.19
2023-04-16T15:36:28.651Z,100580.63
2023-04-16T15:38:56.558Z,100582.38
2023-04-16T15:41:24.674Z,100580.63
2023-04-16T15:43:52.564Z,100585.00
2023-04-16T15:46:21.750Z,100585.03
2023-04-16T15:48:49.634Z,100585.88
2023-04-16T15:51:17.530Z,100583.34
2023-04-16T15:53:45.543Z,100590.25
2023-04-16T15:56:13.413Z,100586.88
2023-04-16T15:58:41.589Z,100589.56
2023-04-16T16:01:09.552Z,100589.63
2023-04-16T16:03:38.968Z,100590.53
2023-04-16T16:06:08.538Z,100593.94
2023-04-16T16:08:38.280Z,100587.03
2023-04-16T16:11:06.269Z,100598.28
2023-04-16T16:13:35.956Z,100603.53
2023-04-16T16:16:03.870Z,100600.22
2023-04-16T16:18:31.819Z,100608.94
2023-04-16T16:21:01.037Z,100615.97
2023-04-16T16:23:28.927Z,100623.81
2023-04-16T16:25:56.932Z,100618.69
2023-04-16T16:28:25.205Z,100622.19
2023-04-16T16:30:55.557Z,100617.03
2023-04-16T16:33:23.708Z,100624.78
2023-04-16T16:35:51.587Z,100625.69
2023-04-16T16:38:20.908Z,100632.59
2023-04-16T16:40:48.752Z,100629.22
2023-04-16T16:43:17.054Z,100632.72
2023-04-16T16:45:45.125Z,100631.94
2023-04-16T16:48:13.119Z,100630.28
2023-04-16T16:50:41.012Z,100641.59
2023-04-16T16:53:09.260Z,100641.59
2023-04-16T16:55:38.459Z,100648.50
2023-04-16T16:58:06.300Z,100652.03
2023-04-16T17:00:34.241Z,100650.38
2023-04-16T17:03:02.333Z,100647.84
2023-04-16T17:05:30.408Z,100648.75
2023-04-16T17:07:58.290Z,100660.00
2023-04-16T17:10:26.354Z,100657.47
2023-04-16T17:12:55.697Z,100662.75
2023-04-16T17:15:23.572Z,100674.81
2023-04-16T17:17:51.530Z,100670.59
2023-04-16T17:20:20.032Z,100672.34
2023-04-16T17:22:48.030Z,100676.69
2023-04-16T17:25:16.274Z,100675.00
2023-04-16T17:27:44.187Z,100678.47
2023-04-16T17:30:13.954Z,100686.25
2023-04-16T17:32:41.813Z,100690.59
2023-04-16T17:35:11.034Z,100691.47
2023-04-16T17:37:39.029Z,100688.94
2023-04-16T17:40:09.704Z,100697.59
2023-04-16T17:42:37.947Z,100701.00
2023-04-16T17:45:06.578Z,100699.34
2023-04-16T17:47:37.081Z,100701.09
2023-04-16T17:50:05.878Z,100702.88
2023-04-16T17:52:33.725Z,100702.03
2023-04-16T17:55:01.752Z,100708.03
2023-04-16T17:57:29.749Z,100709.78
2023-04-16T17:59:58.096Z,100710.66
2023-04-16T18:02:26.374Z,100719.28
2023-04-16T18:04:56.324Z,100709.81
2023-04-16T18:07:24.209Z,100714.13
2023-04-16T18:09:52.033Z,100711.56
2023-04-16T18:12:20.106Z,100716.78
2023-04-16T18:14:48.001Z,100722.78
2023-04-16T18:17:16.025Z,100726.25
2023-04-16T18:19:44.838Z,100711.69
2023-04-16T18:22:14.028Z,100731.44
2023-04-16T18:24:41.909Z,100723.72
2023-04-16T18:27:09.889Z,100736.59
2023-04-16T18:29:40.003Z,100739.19
2023-04-16T18:32:11.773Z,100738.31
2023-04-16T18:34:40.268Z,100746.09
2023-04-16T18:37:08.235Z,100745.22
2023-04-16T18:39:37.745Z,100739.22
2023-04-16T18:42:06.331Z,100734.94
2023-04-16T18:44:34.225Z,100743.50
2023-04-16T18:47:02.241Z,100740.94
2023-04-16T18:49:30.150Z,100747.81
2023-04-16T18:51:58.181Z,100744.38
2023-04-16T18:54:26.012Z,100743.53
2023-04-16T18:56:55.350Z,100742.69
2023-04-16T18:59:23.284Z,100746.97
2023-04-16T19:01:51.215Z,100738.38
2023-04-16T19:04:19.500Z,100742.69
2023-04-16T19:06:48.546Z,100746.97
2023-04-16T19:09:16.943Z,100744.41
2023-04-16T19:11:45.187Z,100742.69
2023-04-16T19:14:14.381Z,100749.53
2023-04-16T19:16:42.571Z,100746.97
2023-04-16T19:19:10.624Z,100752.13
2023-04-16T19:21:38.704Z,100753.00
2023-04-16T19:24:07.227Z,100749.56
2023-04-16T19:26:35.168Z,100756.41
2023-04-16T19:29:03.526Z,100759.84
2023-04-16T19:31:32.749Z,100759.81
2023-04-16T19:34:00.565Z,100753.81
2023-04-16T19:36:28.458Z,100754.66
2023-04-16T19:38:56.254Z,100749.50
2023-04-16T19:41:24.162Z,100750.31
2023-04-16T19:43:51.964Z,100746.00
2023-04-16T19:46:19.844Z,100746.00
2023-04-16T19:48:49.388Z,100740.84
2023-04-16T19:51:17.333Z,100745.16
2023-04-16T19:53:45.369Z,100752.00
2023-04-16T19:56:14.054Z,100740.84
2023-04-16T19:58:41.892Z,100745.97
2023-04-16T20:01:10.646Z,100742.50
2023-04-16T20:03:38.736Z,100745.06
2023-04-16T20:06:08.034Z,100736.47
2023-04-16T20:08:36.072Z,100741.63
2023-04-16T20:11:04.040Z,100737.31
2023-04-16T20:13:31.978Z,100748.47
2023-04-16T20:16:01.213Z,100748.47
2023-04-16T20:18:29.058Z,100757.91
2023-04-16T20:20:56.972Z,100747.56
2023-04-16T20:23:26.238Z,100751.88
2023-04-16T20:25:54.133Z,100747.59
2023-04-16T20:28:22.245Z,100750.97
2023-04-16T20:30:51.009Z,100754.41
2023-04-16T20:33:19.121Z,100751.84
2023-04-16T20:35:47.248Z,100752.69
2023-04-16T20:38:15.137Z,100750.94
2023-04-16T20:40:47.188Z,100745.81
2023-04-16T20:43:18.741Z,100749.25
2023-04-16T20:45:46.583Z,100745.78
2023-04-16T20:48:14.569Z,100749.25
2023-04-16T20:50:42.445Z,100750.94
2023-04-16T20:53:10.448Z,100762.09
2023-04-16T20:55:38.405Z,100760.38
2023-04-16T20:58:07.610Z,100760.38
2023-04-16T21:00:36.107Z,100756.06
2023-04-16T21:03:04.173Z,100759.50
2023-04-16T21:05:33.980Z,100760.31
2023-04-16T21:08:01.727Z,100750.03
2023-04-16T21:10:29.523Z,100749.13
2023-04-16T21:12:57.304Z,100752.56
2023-04-16T21:15:26.602Z,100747.38
2023-04-16T21:17:54.494Z,100746.53
2023-04-16T21:20:22.349Z,100747.38
2023-04-16T21:22:51.218Z,100750.75
2023-04-16T21:25:19.097Z,100748.19
2023-04-16T21:27:46.952Z,100746.50
2023-04-16T21:30:15.802Z,100749.91
2023-04-16T21:32:45.228Z,100743.94
2023-04-16T21:35:13.323Z,100752.50
2023-04-16T21:37:41.186Z,100753.34
2023-04-16T21:40:09.791Z,100755.06
2023-04-16T21:42:39.791Z,100761.06
2023-04-16T21:45:09.092Z,100749.03
2023-04-16T21:47:37.245Z,100755.00
2023-04-16T21:50:07.340Z,100757.63
2023-04-16T21:52:40.445Z,100758.47
2023-04-16T21:55:10.286Z,100761.91
2023-04-16T21:57:38.232Z,100756.78
2023-04-16T22:00:09.204Z,100755.06
2023-04-16T22:02:37.160Z,100755.91
2023-04-16T22:05:07.478Z,100751.59
2023-04-16T22:07:36.455Z,100755.00
2023-04-16T22:10:04.501Z,100750.69
2023-04-16T22:12:32.464Z,100754.97
2023-04-16T22:15:02.718Z,100755.81
2023-04-16T22:17:31.238Z,100761.78
2023-04-16T22:20:00.726Z,100756.63
2023-04-16T22:22:30.018Z,100754.03
2023-04-16T22:24:57.893Z,100751.47
2023-04-16T22:27:26.099Z,100754.84
2023-04-16T22:29:53.912Z,100756.56
2023-04-16T22:32:21.823Z,100761.72
2023-04-16T22:34:49.725Z,100760.03
2023-04-16T22:37:17.661Z,100764.34
2023-04-16T22:39:46.861Z,100760.91
2023-04-16T22:42:14.713Z,100760.91
2023-04-16T22:44:42.546Z,100755.75
2023-04-16T22:47:10.386Z,100756.63
2023-04-16T22:49:38.326Z,100754.91
2023-04-16T22:52:06.305Z,100755.72
2023-04-16T22:54:34.694Z,100762.59
2023-04-16T22:57:03.880Z,100757.41
2023-04-16T22:59:32.257Z,100759.13
2023-04-16T23:02:00.203Z,100752.28
2023-04-16T23:04:28.103Z,100751.44
2023-04-16T23:06:56.295Z,100748.84
2023-04-16T23:09:24.368Z,100752.28
2023-04-16T23:11:52.207Z,100749.72
2023-04-16T23:14:21.460Z,100747.13
2023-04-16T23:16:49.353Z,100752.25
2023-04-16T23:19:17.176Z,100745.41
2023-04-16T23:21:45.207Z,100753.13
2023-04-16T23:24:13.232Z,100748.88
2023-04-16T23:26:41.160Z,100749.72
2023-04-16T23:29:08.998Z,100748.88
2023-04-16T23:31:38.250Z,100749.72
2023-04-16T23:34:06.057Z,100750.56
2023-04-16T23:36:33.921Z,100743.69
2023-04-16T23:39:01.746Z,100737.69
2023-04-16T23:41:29.647Z,100738.56
2023-04-16T23:43:57.634Z,100737.72
2023-04-16T23:46:25.628Z,100742.00
2023-04-16T23:48:55.294Z,100730.88
2023-04-16T23:51:23.347Z,100736.00
2023-04-16T23:53:51.169Z,100731.69
2023-04-16T23:56:18.946Z,100733.41
2023-04-16T23:58:46.791Z,100730.84
